sensor_id;sensor_type;location;lat;lon;timestamp;P1;durP1;ratioP1;P2;durP2;ratioP2
68126;SDS011;54931;52.098;21.006;2023-08-21T00:01:11;26.20;;;19.00;;
68126;SDS011;54931;52.098;21.006;2023-08-21T00:03:40;24.90;;;18.00;;
68126;SDS011;54931;52.098;21.006;2023-08-21T00:06:07;26.50;;;18.40;;
68126;SDS011;54931;52.098;21.006;2023-08-21T00:08:35;27.30;;;19.80;;
68126;SDS011;54931;52.098;21.006;2023-08-21T00:11:02;28.20;;;19.70;;
68126;SDS011;54931;52.098;21.006;2023-08-21T00:13:30;27.10;;;18.80;;
68126;SDS011;54931;52.098;21.006;2023-08-21T00:15:58;25.40;;;18.10;;
68126;SDS011;54931;52.098;21.006;2023-08-21T00:18:25;25.80;;;19.00;;
68126;SDS011;54931;52.098;21.006;2023-08-21T00:20:54;28.10;;;19.80;;
68126;SDS011;54931;52.098;21.006;2023-08-21T00:23:21;29.10;;;19.90;;
68126;SDS011;54931;52.098;21.006;2023-08-21T00:25:48;27.50;;;19.20;;
68126;SDS011;54931;52.098;21.006;2023-08-21T00:28:16;28.20;;;20.60;;
68126;SDS011;54931;52.098;21.006;2023-08-21T00:30:44;28.80;;;19.90;;
68126;SDS011;54931;52.098;21.006;2023-08-21T00:33:11;26.50;;;19.70;;
68126;SDS011;54931;52.098;21.006;2023-08-21T00:35:39;25.50;;;19.20;;
68126;SDS011;54931;52.098;21.006;2023-08-21T00:38:06;28.90;;;20.50;;
68126;SDS011;54931;52.098;21.006;2023-08-21T00:40:34;28.10;;;19.70;;
68126;SDS011;54931;52.098;21.006;2023-08-21T00:43:02;29.10;;;19.90;;
68126;SDS011;54931;52.098;21.006;2023-08-21T00:45:30;29.90;;;20.90;;
68126;SDS011;54931;52.098;21.006;2023-08-21T00:47:57;27.70;;;21.20;;
68126;SDS011;54931;52.098;21.006;2023-08-21T00:50:25;28.70;;;20.70;;
68126;SDS011;54931;52.098;21.006;2023-08-21T00:52:53;29.90;;;20.80;;
68126;SDS011;54931;52.098;21.006;2023-08-21T00:55:21;29.70;;;20.00;;
68126;SDS011;54931;52.098;21.006;2023-08-21T00:57:48;27.70;;;19.80;;
68126;SDS011;54931;52.098;21.006;2023-08-21T01:00:16;28.10;;;20.30;;
68126;SDS011;54931;52.098;21.006;2023-08-21T01:02:44;28.30;;;20.50;;
68126;SDS011;54931;52.098;21.006;2023-08-21T01:05:12;29.50;;;21.00;;
68126;SDS011;54931;52.098;21.006;2023-08-21T01:07:49;30.00;;;20.30;;
68126;SDS011;54931;52.098;21.006;2023-08-21T01:10:52;27.30;;;20.30;;
68126;SDS011;54931;52.098;21.006;2023-08-21T01:13:57;28.80;;;20.50;;
68126;SDS011;54931;52.098;21.006;2023-08-21T01:16:37;33.50;;;22.90;;
68126;SDS011;54931;52.098;21.006;2023-08-21T01:19:22;29.50;;;19.80;;
68126;SDS011;54931;52.098;21.006;2023-08-21T01:22:07;28.40;;;18.90;;
68126;SDS011;54931;52.098;21.006;2023-08-21T01:24:35;31.40;;;19.70;;
68126;SDS011;54931;52.098;21.006;2023-08-21T01:27:03;28.30;;;20.20;;
68126;SDS011;54931;52.098;21.006;2023-08-21T01:29:31;27.30;;;19.40;;
68126;SDS011;54931;52.098;21.006;2023-08-21T01:34:39;28.60;;;20.80;;
68126;SDS011;54931;52.098;21.006;2023-08-21T01:37:08;29.60;;;20.70;;
68126;SDS011;54931;52.098;21.006;2023-08-21T01:39:36;33.60;;;22.80;;
68126;SDS011;54931;52.098;21.006;2023-08-21T01:42:03;30.40;;;22.50;;
68126;SDS011;54931;52.098;21.006;2023-08-21T01:44:32;35.10;;;22.70;;
68126;SDS011;54931;52.098;21.006;2023-08-21T01:46:59;30.40;;;21.70;;
68126;SDS011;54931;52.098;21.006;2023-08-21T01:49:27;33.10;;;22.30;;
68126;SDS011;54931;52.098;21.006;2023-08-21T01:51:54;30.70;;;22.20;;
68126;SDS011;54931;52.098;21.006;2023-08-21T01:54:21;28.70;;;20.90;;
68126;SDS011;54931;52.098;21.006;2023-08-21T01:56:49;30.10;;;22.00;;
68126;SDS011;54931;52.098;21.006;2023-08-21T01:59:16;30.00;;;20.90;;
68126;SDS011;54931;52.098;21.006;2023-08-21T02:01:44;32.60;;;20.60;;
68126;SDS011;54931;52.098;21.006;2023-08-21T02:04:12;31.40;;;21.30;;
68126;SDS011;54931;52.098;21.006;2023-08-21T02:06:39;29.20;;;19.90;;
68126;SDS011;54931;52.098;21.006;2023-08-21T02:09:06;28.90;;;19.90;;
68126;SDS011;54931;52.098;21.006;2023-08-21T02:11:34;29.60;;;20.80;;
68126;SDS011;54931;52.098;21.006;2023-08-21T02:14:02;29.80;;;21.30;;
68126;SDS011;54931;52.098;21.006;2023-08-21T02:16:29;29.00;;;20.00;;
68126;SDS011;54931;52.098;21.006;2023-08-21T02:18:57;28.20;;;20.20;;
68126;SDS011;54931;52.098;21.006;2023-08-21T02:21:25;33.40;;;22.40;;
68126;SDS011;54931;52.098;21.006;2023-08-21T02:23:52;30.30;;;20.80;;
68126;SDS011;54931;52.098;21.006;2023-08-21T02:26:20;30.80;;;20.80;;
68126;SDS011;54931;52.098;21.006;2023-08-21T02:28:47;28.90;;;20.30;;
68126;SDS011;54931;52.098;21.006;2023-08-21T02:31:15;28.70;;;19.30;;
68126;SDS011;54931;52.098;21.006;2023-08-21T02:33:42;29.10;;;20.50;;
68126;SDS011;54931;52.098;21.006;2023-08-21T02:36:10;33.70;;;22.20;;
68126;SDS011;54931;52.098;21.006;2023-08-21T02:38:37;31.90;;;22.00;;
68126;SDS011;54931;52.098;21.006;2023-08-21T02:41:05;33.50;;;20.90;;
68126;SDS011;54931;52.098;21.006;2023-08-21T02:43:34;29.80;;;19.90;;
68126;SDS011;54931;52.098;21.006;2023-08-21T02:46:01;29.40;;;20.90;;
68126;SDS011;54931;52.098;21.006;2023-08-21T02:48:29;31.60;;;20.30;;
68126;SDS011;54931;52.098;21.006;2023-08-21T02:50:56;31.40;;;20.30;;
68126;SDS011;54931;52.098;21.006;2023-08-21T02:53:24;37.30;;;24.20;;
68126;SDS011;54931;52.098;21.006;2023-08-21T02:55:51;37.10;;;22.90;;
68126;SDS011;54931;52.098;21.006;2023-08-21T02:58:19;36.80;;;23.80;;
68126;SDS011;54931;52.098;21.006;2023-08-21T03:00:46;36.00;;;23.50;;
68126;SDS011;54931;52.098;21.006;2023-08-21T03:03:14;40.20;;;24.90;;
68126;SDS011;54931;52.098;21.006;2023-08-21T03:05:42;36.00;;;25.00;;
68126;SDS011;54931;52.098;21.006;2023-08-21T03:08:09;37.40;;;24.80;;
68126;SDS011;54931;52.098;21.006;2023-08-21T03:10:37;39.20;;;25.20;;
68126;SDS011;54931;52.098;21.006;2023-08-21T03:13:04;35.20;;;24.10;;
68126;SDS011;54931;52.098;21.006;2023-08-21T03:15:34;38.80;;;24.70;;
68126;SDS011;54931;52.098;21.006;2023-08-21T03:18:02;36.80;;;24.10;;
68126;SDS011;54931;52.098;21.006;2023-08-21T03:20:30;35.90;;;23.80;;
68126;SDS011;54931;52.098;21.006;2023-08-21T03:22:57;34.90;;;22.70;;
68126;SDS011;54931;52.098;21.006;2023-08-21T03:25:25;35.50;;;23.30;;
68126;SDS011;54931;52.098;21.006;2023-08-21T03:27:52;36.40;;;23.20;;
68126;SDS011;54931;52.098;21.006;2023-08-21T03:30:20;42.00;;;24.50;;
68126;SDS011;54931;52.098;21.006;2023-08-21T03:32:48;39.10;;;25.30;;
68126;SDS011;54931;52.098;21.006;2023-08-21T03:35:16;38.90;;;25.10;;
68126;SDS011;54931;52.098;21.006;2023-08-21T03:37:43;41.90;;;25.30;;
68126;SDS011;54931;52.098;21.006;2023-08-21T03:40:11;37.20;;;24.30;;
68126;SDS011;54931;52.098;21.006;2023-08-21T03:42:39;38.80;;;25.10;;
68126;SDS011;54931;52.098;21.006;2023-08-21T03:45:08;41.60;;;25.10;;
68126;SDS011;54931;52.098;21.006;2023-08-21T03:47:37;34.80;;;23.20;;
68126;SDS011;54931;52.098;21.006;2023-08-21T03:50:05;35.70;;;23.00;;
68126;SDS011;54931;52.098;21.006;2023-08-21T03:52:33;35.50;;;23.40;;
68126;SDS011;54931;52.098;21.006;2023-08-21T03:55:00;40.10;;;24.00;;
68126;SDS011;54931;52.098;21.006;2023-08-21T03:57:28;42.90;;;25.40;;
68126;SDS011;54931;52.098;21.006;2023-08-21T03:59:55;39.40;;;25.20;;
68126;SDS011;54931;52.098;21.006;2023-08-21T04:02:23;37.90;;;24.20;;
68126;SDS011;54931;52.098;21.006;2023-08-21T04:04:50;42.00;;;25.00;;
68126;SDS011;54931;52.098;21.006;2023-08-21T04:07:17;36.30;;;24.00;;
68126;SDS011;54931;52.098;21.006;2023-08-21T04:09:45;39.30;;;25.60;;
68126;SDS011;54931;52.098;21.006;2023-08-21T04:12:13;44.00;;;25.80;;
68126;SDS011;54931;52.098;21.006;2023-08-21T04:14:40;43.10;;;25.20;;
68126;SDS011;54931;52.098;21.006;2023-08-21T04:17:08;38.50;;;25.30;;
68126;SDS011;54931;52.098;21.006;2023-08-21T04:19:35;39.90;;;25.70;;
68126;SDS011;54931;52.098;21.006;2023-08-21T04:22:03;39.60;;;26.30;;
68126;SDS011;54931;52.098;21.006;2023-08-21T04:24:30;38.10;;;24.00;;
68126;SDS011;54931;52.098;21.006;2023-08-21T04:26:58;40.10;;;24.50;;
68126;SDS011;54931;52.098;21.006;2023-08-21T04:29:25;39.30;;;24.10;;
68126;SDS011;54931;52.098;21.006;2023-08-21T04:31:53;32.10;;;22.00;;
68126;SDS011;54931;52.098;21.006;2023-08-21T04:34:21;34.90;;;21.80;;
68126;SDS011;54931;52.098;21.006;2023-08-21T04:36:49;33.20;;;22.00;;
68126;SDS011;54931;52.098;21.006;2023-08-21T04:39:17;36.20;;;21.80;;
68126;SDS011;54931;52.098;21.006;2023-08-21T04:41:44;36.60;;;22.10;;
68126;SDS011;54931;52.098;21.006;2023-08-21T04:44:12;35.80;;;22.60;;
68126;SDS011;54931;52.098;21.006;2023-08-21T04:46:39;36.30;;;21.50;;
68126;SDS011;54931;52.098;21.006;2023-08-21T04:49:07;29.50;;;20.20;;
68126;SDS011;54931;52.098;21.006;2023-08-21T04:51:35;32.40;;;19.90;;
68126;SDS011;54931;52.098;21.006;2023-08-21T04:54:03;30.80;;;19.70;;
68126;SDS011;54931;52.098;21.006;2023-08-21T04:56:30;27.50;;;19.10;;
68126;SDS011;54931;52.098;21.006;2023-08-21T04:58:58;27.70;;;17.90;;
68126;SDS011;54931;52.098;21.006;2023-08-21T05:01:25;27.50;;;18.10;;
68126;SDS011;54931;52.098;21.006;2023-08-21T05:03:53;28.40;;;17.70;;
68126;SDS011;54931;52.098;21.006;2023-08-21T05:06:21;24.40;;;17.30;;
68126;SDS011;54931;52.098;21.006;2023-08-21T05:08:49;23.80;;;16.00;;
68126;SDS011;54931;52.098;21.006;2023-08-21T05:11:16;26.50;;;16.10;;
68126;SDS011;54931;52.098;21.006;2023-08-21T05:13:44;22.40;;;16.60;;
68126;SDS011;54931;52.098;21.006;2023-08-21T05:16:12;25.00;;;16.70;;
68126;SDS011;54931;52.098;21.006;2023-08-21T05:18:39;23.80;;;16.80;;
68126;SDS011;54931;52.098;21.006;2023-08-21T05:21:07;22.80;;;16.90;;
68126;SDS011;54931;52.098;21.006;2023-08-21T05:23:35;25.50;;;17.20;;
68126;SDS011;54931;52.098;21.006;2023-08-21T05:26:02;26.30;;;17.40;;
68126;SDS011;54931;52.098;21.006;2023-08-21T05:28:29;26.50;;;16.90;;
68126;SDS011;54931;52.098;21.006;2023-08-21T05:30:57;26.10;;;17.40;;
68126;SDS011;54931;52.098;21.006;2023-08-21T05:33:25;26.50;;;17.30;;
68126;SDS011;54931;52.098;21.006;2023-08-21T05:35:52;23.30;;;17.10;;
68126;SDS011;54931;52.098;21.006;2023-08-21T05:38:20;24.10;;;17.40;;
68126;SDS011;54931;52.098;21.006;2023-08-21T05:40:48;23.90;;;18.00;;
68126;SDS011;54931;52.098;21.006;2023-08-21T05:43:16;27.50;;;18.40;;
68126;SDS011;54931;52.098;21.006;2023-08-21T05:45:45;24.50;;;17.90;;
68126;SDS011;54931;52.098;21.006;2023-08-21T05:48:12;24.50;;;18.40;;
68126;SDS011;54931;52.098;21.006;2023-08-21T05:50:39;25.20;;;17.80;;
68126;SDS011;54931;52.098;21.006;2023-08-21T05:53:07;29.60;;;17.60;;
68126;SDS011;54931;52.098;21.006;2023-08-21T05:55:38;29.40;;;17.40;;
68126;SDS011;54931;52.098;21.006;2023-08-21T05:58:06;26.50;;;17.10;;
68126;SDS011;54931;52.098;21.006;2023-08-21T06:00:33;25.10;;;17.80;;
68126;SDS011;54931;52.098;21.006;2023-08-21T06:03:02;24.90;;;17.10;;
68126;SDS011;54931;52.098;21.006;2023-08-21T06:05:30;26.00;;;16.90;;
68126;SDS011;54931;52.098;21.006;2023-08-21T06:07:57;25.00;;;17.00;;
68126;SDS011;54931;52.098;21.006;2023-08-21T06:10:25;26.60;;;18.30;;
68126;SDS011;54931;52.098;21.006;2023-08-21T06:12:53;25.00;;;18.10;;
68126;SDS011;54931;52.098;21.006;2023-08-21T06:15:20;24.80;;;18.10;;
68126;SDS011;54931;52.098;21.006;2023-08-21T06:17:47;25.00;;;17.30;;
68126;SDS011;54931;52.098;21.006;2023-08-21T06:20:15;27.40;;;18.10;;
68126;SDS011;54931;52.098;21.006;2023-08-21T06:22:42;30.90;;;17.40;;
68126;SDS011;54931;52.098;21.006;2023-08-21T06:25:10;28.70;;;18.80;;
68126;SDS011;54931;52.098;21.006;2023-08-21T06:27:37;27.40;;;18.70;;
68126;SDS011;54931;52.098;21.006;2023-08-21T06:30:06;31.60;;;19.10;;
68126;SDS011;54931;52.098;21.006;2023-08-21T06:32:34;29.60;;;19.00;;
68126;SDS011;54931;52.098;21.006;2023-08-21T06:35:02;29.50;;;19.10;;
68126;SDS011;54931;52.098;21.006;2023-08-21T06:37:30;26.40;;;17.00;;
68126;SDS011;54931;52.098;21.006;2023-08-21T06:39:58;29.70;;;18.30;;
68126;SDS011;54931;52.098;21.006;2023-08-21T06:42:25;29.20;;;18.40;;
68126;SDS011;54931;52.098;21.006;2023-08-21T06:44:53;25.60;;;19.70;;
68126;SDS011;54931;52.098;21.006;2023-08-21T06:47:20;29.10;;;20.00;;
68126;SDS011;54931;52.098;21.006;2023-08-21T06:49:48;25.70;;;19.90;;
68126;SDS011;54931;52.098;21.006;2023-08-21T06:52:15;28.60;;;19.80;;
68126;SDS011;54931;52.098;21.006;2023-08-21T06:54:43;27.90;;;20.40;;
68126;SDS011;54931;52.098;21.006;2023-08-21T06:57:10;32.10;;;20.80;;
68126;SDS011;54931;52.098;21.006;2023-08-21T06:59:38;31.30;;;20.80;;
68126;SDS011;54931;52.098;21.006;2023-08-21T07:02:05;28.80;;;20.50;;
68126;SDS011;54931;52.098;21.006;2023-08-21T07:04:33;30.30;;;21.10;;
68126;SDS011;54931;52.098;21.006;2023-08-21T07:07:01;28.80;;;20.40;;
68126;SDS011;54931;52.098;21.006;2023-08-21T07:09:28;30.50;;;21.10;;
68126;SDS011;54931;52.098;21.006;2023-08-21T07:11:56;28.40;;;20.50;;
68126;SDS011;54931;52.098;21.006;2023-08-21T07:14:23;33.20;;;21.40;;
68126;SDS011;54931;52.098;21.006;2023-08-21T07:16:51;29.60;;;20.90;;
68126;SDS011;54931;52.098;21.006;2023-08-21T07:19:18;28.60;;;19.70;;
68126;SDS011;54931;52.098;21.006;2023-08-21T07:21:46;30.30;;;21.30;;
68126;SDS011;54931;52.098;21.006;2023-08-21T07:24:14;28.10;;;20.80;;
68126;SDS011;54931;52.098;21.006;2023-08-21T07:26:41;30.50;;;21.40;;
68126;SDS011;54931;52.098;21.006;2023-08-21T07:29:09;29.90;;;21.50;;
68126;SDS011;54931;52.098;21.006;2023-08-21T07:31:37;29.00;;;20.90;;
68126;SDS011;54931;52.098;21.006;2023-08-21T07:34:04;28.70;;;21.30;;
68126;SDS011;54931;52.098;21.006;2023-08-21T07:36:32;34.30;;;21.90;;
68126;SDS011;54931;52.098;21.006;2023-08-21T07:39:00;32.20;;;21.10;;
68126;SDS011;54931;52.098;21.006;2023-08-21T07:41:28;30.30;;;21.20;;
68126;SDS011;54931;52.098;21.006;2023-08-21T07:43:56;30.00;;;22.50;;
68126;SDS011;54931;52.098;21.006;2023-08-21T07:46:23;32.10;;;22.90;;
68126;SDS011;54931;52.098;21.006;2023-08-21T07:48:52;32.80;;;22.20;;
68126;SDS011;54931;52.098;21.006;2023-08-21T07:51:20;30.80;;;21.80;;
68126;SDS011;54931;52.098;21.006;2023-08-21T07:53:47;32.30;;;22.80;;
68126;SDS011;54931;52.098;21.006;2023-08-21T07:56:14;30.40;;;21.70;;
68126;SDS011;54931;52.098;21.006;2023-08-21T07:58:42;29.90;;;21.30;;
68126;SDS011;54931;52.098;21.006;2023-08-21T08:01:09;28.20;;;21.30;;
68126;SDS011;54931;52.098;21.006;2023-08-21T08:03:37;27.80;;;21.40;;
68126;SDS011;54931;52.098;21.006;2023-08-21T08:06:05;27.90;;;21.00;;
68126;SDS011;54931;52.098;21.006;2023-08-21T08:08:33;26.40;;;20.40;;
68126;SDS011;54931;52.098;21.006;2023-08-21T08:11:02;29.20;;;19.60;;
68126;SDS011;54931;52.098;21.006;2023-08-21T08:13:31;27.20;;;19.90;;
68126;SDS011;54931;52.098;21.006;2023-08-21T08:15:59;24.30;;;19.30;;
68126;SDS011;54931;52.098;21.006;2023-08-21T08:18:28;23.80;;;18.80;;
68126;SDS011;54931;52.098;21.006;2023-08-21T08:20:55;24.20;;;18.30;;
68126;SDS011;54931;52.098;21.006;2023-08-21T08:23:22;24.30;;;18.00;;
68126;SDS011;54931;52.098;21.006;2023-08-21T08:25:50;24.40;;;18.90;;
68126;SDS011;54931;52.098;21.006;2023-08-21T08:28:18;26.50;;;19.20;;
68126;SDS011;54931;52.098;21.006;2023-08-21T08:30:46;23.90;;;17.90;;
68126;SDS011;54931;52.098;21.006;2023-08-21T08:33:13;24.40;;;18.60;;
68126;SDS011;54931;52.098;21.006;2023-08-21T08:35:41;27.30;;;18.80;;
68126;SDS011;54931;52.098;21.006;2023-08-21T08:38:09;22.30;;;17.30;;
68126;SDS011;54931;52.098;21.006;2023-08-21T08:40:43;25.00;;;17.50;;
68126;SDS011;54931;52.098;21.006;2023-08-21T08:43:12;24.10;;;18.30;;
68126;SDS011;54931;52.098;21.006;2023-08-21T08:45:43;23.50;;;18.70;;
68126;SDS011;54931;52.098;21.006;2023-08-21T08:48:14;24.30;;;17.10;;
68126;SDS011;54931;52.098;21.006;2023-08-21T08:50:42;21.50;;;17.20;;
68126;SDS011;54931;52.098;21.006;2023-08-21T08:53:12;21.00;;;16.60;;
68126;SDS011;54931;52.098;21.006;2023-08-21T08:55:40;22.40;;;15.70;;
68126;SDS011;54931;52.098;21.006;2023-08-21T08:58:07;19.30;;;15.50;;
68126;SDS011;54931;52.098;21.006;2023-08-21T09:00:35;20.40;;;14.90;;
68126;SDS011;54931;52.098;21.006;2023-08-21T09:03:03;23.30;;;15.10;;
68126;SDS011;54931;52.098;21.006;2023-08-21T09:05:33;21.70;;;15.50;;
68126;SDS011;54931;52.098;21.006;2023-08-21T09:08:02;20.10;;;14.50;;
68126;SDS011;54931;52.098;21.006;2023-08-21T09:10:37;19.60;;;15.90;;
68126;SDS011;54931;52.098;21.006;2023-08-21T09:13:20;18.70;;;14.60;;
68126;SDS011;54931;52.098;21.006;2023-08-21T09:15:53;19.00;;;15.20;;
68126;SDS011;54931;52.098;21.006;2023-08-21T09:18:27;21.50;;;14.80;;
68126;SDS011;54931;52.098;21.006;2023-08-21T09:20:55;17.20;;;14.00;;
68126;SDS011;54931;52.098;21.006;2023-08-21T09:23:29;16.00;;;13.90;;
68126;SDS011;54931;52.098;21.006;2023-08-21T09:25:56;17.50;;;13.90;;
68126;SDS011;54931;52.098;21.006;2023-08-21T09:28:25;16.80;;;12.80;;
68126;SDS011;54931;52.098;21.006;2023-08-21T09:30:56;18.30;;;13.10;;
68126;SDS011;54931;52.098;21.006;2023-08-21T09:33:25;15.40;;;13.20;;
68126;SDS011;54931;52.098;21.006;2023-08-21T09:35:54;16.30;;;12.30;;
68126;SDS011;54931;52.098;21.006;2023-08-21T09:38:22;17.60;;;13.80;;
68126;SDS011;54931;52.098;21.006;2023-08-21T09:40:52;16.80;;;11.80;;
68126;SDS011;54931;52.098;21.006;2023-08-21T09:43:24;16.20;;;11.00;;
68126;SDS011;54931;52.098;21.006;2023-08-21T09:45:54;14.00;;;11.00;;
68126;SDS011;54931;52.098;21.006;2023-08-21T09:48:24;12.00;;;10.50;;
68126;SDS011;54931;52.098;21.006;2023-08-21T09:50:56;11.20;;;9.80;;
68126;SDS011;54931;52.098;21.006;2023-08-21T09:53:24;11.90;;;9.30;;
68126;SDS011;54931;52.098;21.006;2023-08-21T09:55:55;9.50;;;8.40;;
68126;SDS011;54931;52.098;21.006;2023-08-21T09:58:23;9.10;;;7.40;;
68126;SDS011;54931;52.098;21.006;2023-08-21T10:00:51;8.20;;;7.30;;
68126;SDS011;54931;52.098;21.006;2023-08-21T10:03:24;8.70;;;7.20;;
68126;SDS011;54931;52.098;21.006;2023-08-21T10:05:55;9.80;;;6.50;;
68126;SDS011;54931;52.098;21.006;2023-08-21T10:08:25;9.90;;;6.00;;
68126;SDS011;54931;52.098;21.006;2023-08-21T10:10:55;7.70;;;5.50;;
68126;SDS011;54931;52.098;21.006;2023-08-21T10:13:23;8.90;;;5.50;;
68126;SDS011;54931;52.098;21.006;2023-08-21T10:15:51;9.00;;;5.10;;
68126;SDS011;54931;52.098;21.006;2023-08-21T10:18:23;5.80;;;4.70;;
68126;SDS011;54931;52.098;21.006;2023-08-21T10:21:13;6.20;;;4.60;;
68126;SDS011;54931;52.098;21.006;2023-08-21T10:23:46;5.70;;;4.60;;
68126;SDS011;54931;52.098;21.006;2023-08-21T10:26:18;8.50;;;5.10;;
68126;SDS011;54931;52.098;21.006;2023-08-21T10:28:55;5.50;;;4.80;;
68126;SDS011;54931;52.098;21.006;2023-08-21T10:31:37;15.80;;;5.80;;
68126;SDS011;54931;52.098;21.006;2023-08-21T10:34:07;8.00;;;4.70;;
68126;SDS011;54931;52.098;21.006;2023-08-21T10:39:17;9.50;;;5.20;;
68126;SDS011;54931;52.098;21.006;2023-08-21T10:41:56;6.50;;;4.70;;
68126;SDS011;54931;52.098;21.006;2023-08-21T10:45:09;7.30;;;4.40;;
68126;SDS011;54931;52.098;21.006;2023-08-21T10:47:38;7.10;;;3.90;;
68126;SDS011;54931;52.098;21.006;2023-08-21T10:50:07;7.50;;;4.40;;
68126;SDS011;54931;52.098;21.006;2023-08-21T10:52:40;5.10;;;4.20;;
68126;SDS011;54931;52.098;21.006;2023-08-21T10:55:11;5.20;;;4.30;;
68126;SDS011;54931;52.098;21.006;2023-08-21T10:57:40;6.70;;;4.50;;
68126;SDS011;54931;52.098;21.006;2023-08-21T11:00:18;7.40;;;4.80;;
68126;SDS011;54931;52.098;21.006;2023-08-21T11:02:49;9.30;;;4.80;;
68126;SDS011;54931;52.098;21.006;2023-08-21T11:05:17;10.00;;;4.30;;
68126;SDS011;54931;52.098;21.006;2023-08-21T11:07:47;7.80;;;4.40;;
68126;SDS011;54931;52.098;21.006;2023-08-21T11:10:27;6.50;;;4.70;;
68126;SDS011;54931;52.098;21.006;2023-08-21T11:12:58;6.20;;;4.60;;
68126;SDS011;54931;52.098;21.006;2023-08-21T11:15:29;6.00;;;4.70;;
68126;SDS011;54931;52.098;21.006;2023-08-21T11:18:00;7.70;;;4.90;;
68126;SDS011;54931;52.098;21.006;2023-08-21T11:20:33;14.20;;;5.50;;
68126;SDS011;54931;52.098;21.006;2023-08-21T11:23:05;9.00;;;4.80;;
68126;SDS011;54931;52.098;21.006;2023-08-21T11:25:37;10.00;;;4.70;;
68126;SDS011;54931;52.098;21.006;2023-08-21T11:28:07;8.40;;;4.30;;
68126;SDS011;54931;52.098;21.006;2023-08-21T11:30:36;6.60;;;4.40;;
68126;SDS011;54931;52.098;21.006;2023-08-21T11:33:08;7.80;;;4.70;;
68126;SDS011;54931;52.098;21.006;2023-08-21T11:35:40;6.10;;;4.80;;
68126;SDS011;54931;52.098;21.006;2023-08-21T11:38:16;6.70;;;4.90;;
68126;SDS011;54931;52.098;21.006;2023-08-21T11:40:56;5.80;;;4.10;;
68126;SDS011;54931;52.098;21.006;2023-08-21T11:46:05;6.00;;;4.50;;
68126;SDS011;54931;52.098;21.006;2023-08-21T11:48:37;5.70;;;4.60;;
68126;SDS011;54931;52.098;21.006;2023-08-21T11:51:07;10.50;;;5.20;;
68126;SDS011;54931;52.098;21.006;2023-08-21T11:53:40;8.70;;;3.90;;
68126;SDS011;54931;52.098;21.006;2023-08-21T11:56:14;6.80;;;4.20;;
68126;SDS011;54931;52.098;21.006;2023-08-21T11:58:45;5.40;;;4.00;;
68126;SDS011;54931;52.098;21.006;2023-08-21T12:01:20;5.90;;;4.20;;
68126;SDS011;54931;52.098;21.006;2023-08-21T12:03:48;5.40;;;3.70;;
68126;SDS011;54931;52.098;21.006;2023-08-21T12:06:23;8.60;;;4.30;;
68126;SDS011;54931;52.098;21.006;2023-08-21T12:08:52;7.80;;;4.40;;
68126;SDS011;54931;52.098;21.006;2023-08-21T12:11:20;8.20;;;4.40;;
68126;SDS011;54931;52.098;21.006;2023-08-21T12:13:48;6.20;;;4.10;;
68126;SDS011;54931;52.098;21.006;2023-08-21T12:16:15;5.80;;;4.10;;
68126;SDS011;54931;52.098;21.006;2023-08-21T12:18:43;5.70;;;4.00;;
68126;SDS011;54931;52.098;21.006;2023-08-21T12:21:10;5.70;;;4.30;;
68126;SDS011;54931;52.098;21.006;2023-08-21T12:23:38;5.80;;;4.30;;
68126;SDS011;54931;52.098;21.006;2023-08-21T12:26:05;5.90;;;4.20;;
68126;SDS011;54931;52.098;21.006;2023-08-21T12:28:33;8.00;;;3.80;;
68126;SDS011;54931;52.098;21.006;2023-08-21T12:31:00;8.10;;;3.80;;
68126;SDS011;54931;52.098;21.006;2023-08-21T12:33:28;7.00;;;3.50;;
68126;SDS011;54931;52.098;21.006;2023-08-21T12:35:55;6.10;;;3.30;;
68126;SDS011;54931;52.098;21.006;2023-08-21T12:38:23;7.40;;;3.20;;
68126;SDS011;54931;52.098;21.006;2023-08-21T12:40:56;4.30;;;3.20;;
68126;SDS011;54931;52.098;21.006;2023-08-21T12:43:23;7.50;;;3.20;;
68126;SDS011;54931;52.098;21.006;2023-08-21T12:45:50;4.30;;;3.20;;
68126;SDS011;54931;52.098;21.006;2023-08-21T12:48:18;4.70;;;3.20;;
68126;SDS011;54931;52.098;21.006;2023-08-21T12:50:45;6.80;;;3.30;;
68126;SDS011;54931;52.098;21.006;2023-08-21T12:53:13;11.80;;;3.80;;
68126;SDS011;54931;52.098;21.006;2023-08-21T12:55:41;9.00;;;3.90;;
68126;SDS011;54931;52.098;21.006;2023-08-21T12:58:09;5.20;;;3.40;;
68126;SDS011;54931;52.098;21.006;2023-08-21T13:00:37;13.50;;;4.00;;
68126;SDS011;54931;52.098;21.006;2023-08-21T13:03:05;7.00;;;3.10;;
68126;SDS011;54931;52.098;21.006;2023-08-21T13:05:32;5.40;;;3.10;;
68126;SDS011;54931;52.098;21.006;2023-08-21T13:08:01;5.60;;;2.80;;
68126;SDS011;54931;52.098;21.006;2023-08-21T13:10:29;6.60;;;3.00;;
68126;SDS011;54931;52.098;21.006;2023-08-21T13:12:57;3.50;;;2.60;;
68126;SDS011;54931;52.098;21.006;2023-08-21T13:15:24;6.40;;;2.50;;
68126;SDS011;54931;52.098;21.006;2023-08-21T13:17:51;4.90;;;2.70;;
68126;SDS011;54931;52.098;21.006;2023-08-21T13:20:19;3.40;;;2.50;;
68126;SDS011;54931;52.098;21.006;2023-08-21T13:22:51;6.60;;;3.10;;
68126;SDS011;54931;52.098;21.006;2023-08-21T13:25:21;4.10;;;2.70;;
68126;SDS011;54931;52.098;21.006;2023-08-21T13:27:50;4.50;;;2.60;;
68126;SDS011;54931;52.098;21.006;2023-08-21T13:30:19;3.30;;;2.40;;
68126;SDS011;54931;52.098;21.006;2023-08-21T13:32:47;5.70;;;2.60;;
68126;SDS011;54931;52.098;21.006;2023-08-21T13:35:15;8.70;;;2.40;;
68126;SDS011;54931;52.098;21.006;2023-08-21T13:37:44;5.70;;;2.50;;
68126;SDS011;54931;52.098;21.006;2023-08-21T13:40:11;9.20;;;2.60;;
68126;SDS011;54931;52.098;21.006;2023-08-21T13:42:42;3.60;;;2.60;;
68126;SDS011;54931;52.098;21.006;2023-08-21T13:45:15;4.40;;;2.60;;
68126;SDS011;54931;52.098;21.006;2023-08-21T13:47:48;6.00;;;2.40;;
68126;SDS011;54931;52.098;21.006;2023-08-21T13:50:17;7.00;;;2.50;;
68126;SDS011;54931;52.098;21.006;2023-08-21T13:52:46;4.60;;;2.30;;
68126;SDS011;54931;52.098;21.006;2023-08-21T13:55:14;3.60;;;2.40;;
68126;SDS011;54931;52.098;21.006;2023-08-21T13:57:43;6.70;;;2.60;;
68126;SDS011;54931;52.098;21.006;2023-08-21T14:00:11;6.90;;;2.90;;
68126;SDS011;54931;52.098;21.006;2023-08-21T14:02:40;7.10;;;3.00;;
68126;SDS011;54931;52.098;21.006;2023-08-21T14:05:09;9.70;;;3.00;;
68126;SDS011;54931;52.098;21.006;2023-08-21T14:07:38;6.30;;;3.00;;
68126;SDS011;54931;52.098;21.006;2023-08-21T14:10:07;5.50;;;2.60;;
68126;SDS011;54931;52.098;21.006;2023-08-21T14:12:35;5.50;;;2.50;;
68126;SDS011;54931;52.098;21.006;2023-08-21T14:15:03;7.00;;;2.70;;
68126;SDS011;54931;52.098;21.006;2023-08-21T14:17:31;19.30;;;3.20;;
68126;SDS011;54931;52.098;21.006;2023-08-21T14:19:59;9.60;;;2.90;;
68126;SDS011;54931;52.098;21.006;2023-08-21T14:22:26;9.50;;;2.60;;
68126;SDS011;54931;52.098;21.006;2023-08-21T14:24:54;5.20;;;2.90;;
68126;SDS011;54931;52.098;21.006;2023-08-21T14:27:21;10.10;;;2.90;;
68126;SDS011;54931;52.098;21.006;2023-08-21T14:29:48;8.80;;;2.90;;
68126;SDS011;54931;52.098;21.006;2023-08-21T14:32:16;5.00;;;2.60;;
68126;SDS011;54931;52.098;21.006;2023-08-21T14:34:44;3.20;;;2.30;;